createdAt,value
2022-11-10T00:02:25.567Z,17.03
2022-11-10T00:05:46.433Z,15.63
2022-11-10T00:09:07.533Z,15.73
2022-11-10T00:12:28.205Z,15.63
2022-11-10T00:16:07.272Z,15.40
2022-11-10T00:19:29.283Z,17.03
2022-11-10T00:22:49.896Z,17.30
2022-11-10T00:26:17.061Z,16.37
2022-11-10T00:29:37.674Z,16.40
2022-11-10T00:32:58.111Z,16.27
2022-11-10T00:36:18.541Z,17.47
2022-11-10T00:39:39.236Z,16.00
2022-11-10T00:42:59.689Z,17.17
2022-11-10T00:46:20.412Z,14.97
2022-11-10T00:49:41.032Z,17.27
2022-11-10T00:53:01.563Z,17.37
2022-11-10T00:56:23.190Z,18.70
2022-11-10T00:59:43.567Z,16.03
2022-11-10T01:03:04.030Z,18.23
2022-11-10T01:06:24.821Z,18.00
2022-11-10T01:09:45.413Z,18.00
2022-11-10T01:13:06.135Z,17.73
2022-11-10T01:16:31.959Z,16.97
2022-11-10T01:19:52.848Z,15.37
2022-11-10T01:23:13.287Z,15.57
2022-11-10T01:26:34.055Z,16.30
2022-11-10T01:29:54.775Z,15.83
2022-11-10T01:33:17.913Z,16.03
2022-11-10T01:36:38.798Z,17.57
2022-11-10T01:39:59.644Z,15.43
2022-11-10T01:43:20.449Z,14.63
2022-11-10T01:46:41.414Z,15.17
2022-11-10T01:50:02.662Z,15.07
2022-11-10T01:53:26.496Z,18.43
2022-11-10T01:56:51.507Z,16.90
2022-11-10T02:00:13.227Z,17.07
2022-11-10T02:03:49.626Z,17.13
2022-11-10T02:07:12.030Z,17.83
2022-11-10T02:10:32.628Z,16.53
2022-11-10T02:13:54.185Z,14.63
2022-11-10T02:17:14.734Z,15.83
2022-11-10T02:20:35.509Z,15.60
2022-11-10T02:23:56.305Z,15.53
2022-11-10T02:27:16.711Z,14.83
2022-11-10T02:30:37.186Z,16.30
2022-11-10T02:33:57.889Z,14.30
2022-11-10T02:37:18.409Z,14.83
2022-11-10T02:40:39.461Z,16.83
2022-11-10T02:44:00.604Z,14.20
2022-11-10T02:47:21.098Z,15.30
2022-11-10T02:50:41.855Z,13.33
2022-11-10T02:54:02.210Z,13.37
2022-11-10T02:57:22.813Z,12.83
2022-11-10T03:00:43.451Z,12.50
2022-11-10T03:04:04.490Z,13.50
2022-11-10T03:07:25.445Z,12.00
2022-11-10T03:10:46.190Z,11.90
2022-11-10T03:14:06.912Z,13.03
2022-11-10T03:17:28.381Z,13.07
2022-11-10T03:20:50.055Z,12.60
2022-11-10T03:24:10.953Z,13.00
2022-11-10T03:27:31.260Z,12.30
2022-11-10T03:30:52.173Z,12.57
2022-11-10T03:34:12.624Z,12.60
2022-11-10T03:37:33.024Z,13.60
2022-11-10T03:44:34.396Z,11.37
2022-11-10T03:47:55.182Z,11.10
2022-11-10T03:51:15.784Z,12.07
2022-11-10T03:54:36.515Z,11.10
2022-11-10T03:58:02.429Z,10.50
2022-11-10T04:01:24.033Z,12.63
2022-11-10T04:05:03.663Z,11.90
2022-11-10T04:08:42.912Z,13.33
2022-11-10T04:12:24.958Z,11.57
2022-11-10T04:15:46.125Z,12.27
2022-11-10T04:19:07.062Z,11.57
2022-11-10T04:22:46.512Z,13.87
2022-11-10T04:26:28.064Z,13.23
2022-11-10T04:29:48.875Z,12.57
2022-11-10T04:33:09.712Z,13.57
2022-11-10T04:36:32.246Z,13.57
2022-11-10T04:39:53.061Z,13.30
2022-11-10T04:43:13.448Z,13.00
2022-11-10T04:46:40.423Z,13.97
2022-11-10T04:50:01.105Z,13.23
2022-11-10T04:53:22.132Z,12.93
2022-11-10T04:56:42.902Z,14.60
2022-11-10T05:00:05.106Z,13.27
2022-11-10T05:03:26.806Z,12.77
2022-11-10T05:06:47.389Z,11.73
2022-11-10T05:10:08.164Z,12.23
2022-11-10T05:13:28.845Z,12.87
2022-11-10T05:16:49.292Z,11.53
2022-11-10T05:20:10.422Z,12.10
2022-11-10T05:23:40.526Z,12.60
2022-11-10T05:27:01.475Z,13.10
2022-11-10T05:30:21.978Z,12.07
2022-11-10T05:33:42.428Z,13.17
2022-11-10T05:37:02.916Z,13.17
2022-11-10T05:40:23.777Z,13.80
2022-11-10T05:43:44.415Z,14.50
2022-11-10T05:47:05.295Z,15.23
2022-11-10T05:50:26.696Z,13.53
2022-11-10T05:53:47.334Z,11.77
2022-11-10T05:57:08.049Z,11.23
2022-11-10T06:00:30.930Z,10.77
2022-11-10T06:03:51.364Z,8.70
2022-11-10T06:07:12.219Z,8.20
2022-11-10T06:10:34.080Z,7.30
2022-11-10T06:13:54.791Z,6.93
2022-11-10T06:17:15.737Z,5.47
2022-11-10T06:20:36.582Z,5.30
2022-11-10T06:23:57.359Z,4.57
2022-11-10T06:27:18.105Z,4.77
2022-11-10T06:30:38.721Z,3.93
2022-11-10T06:34:00.250Z,4.13
2022-11-10T06:37:21.034Z,3.53
2022-11-10T06:40:41.581Z,4.00
2022-11-10T06:44:02.102Z,3.90
2022-11-10T06:47:22.850Z,3.57
2022-11-10T06:50:43.593Z,4.00
2022-11-10T06:54:04.503Z,3.67
2022-11-10T06:57:25.167Z,3.83
2022-11-10T07:00:46.278Z,4.33
2022-11-10T07:04:19.172Z,3.80
2022-11-10T07:07:40.850Z,3.57
2022-11-10T07:11:01.401Z,3.27
2022-11-10T07:14:22.284Z,3.13
2022-11-10T07:17:43.151Z,2.93
2022-11-10T07:21:05.660Z,2.53
2022-11-10T07:24:26.689Z,2.70
2022-11-10T07:27:47.263Z,2.33
2022-11-10T07:31:07.929Z,2.10
2022-11-10T07:34:28.710Z,2.30
2022-11-10T07:37:49.354Z,2.40
2022-11-10T07:41:10.266Z,2.93
2022-11-10T07:44:30.990Z,2.73
2022-11-10T07:47:51.973Z,2.17
2022-11-10T07:51:12.611Z,2.57
2022-11-10T07:54:33.351Z,2.03
2022-11-10T07:57:58.462Z,2.63
2022-11-10T08:01:19.136Z,2.33
2022-11-10T08:04:39.582Z,2.00
2022-11-10T08:08:00.704Z,2.13
2022-11-10T08:11:21.600Z,2.50
2022-11-10T08:14:42.051Z,2.30
2022-11-10T08:18:08.261Z,2.27
2022-11-10T08:21:28.807Z,2.77
2022-11-10T08:24:49.197Z,1.70
2022-11-10T08:28:09.972Z,1.80
2022-11-10T08:31:33.469Z,2.03
2022-11-10T08:34:54.395Z,2.20
2022-11-10T08:38:19.942Z,1.60
2022-11-10T08:41:40.591Z,1.80
2022-11-10T08:45:01.398Z,2.37
2022-11-10T08:48:22.080Z,2.23
2022-11-10T08:51:42.744Z,2.20
2022-11-10T08:55:03.841Z,2.00
2022-11-10T08:58:24.759Z,1.83
2022-11-10T09:01:45.119Z,2.20
2022-11-10T09:05:06.592Z,1.80
2022-11-10T09:08:28.809Z,2.00
2022-11-10T09:11:49.432Z,1.90
2022-11-10T09:15:11.507Z,1.70
2022-11-10T09:18:32.860Z,1.80
2022-11-10T09:21:53.585Z,1.90
2022-11-10T09:25:14.201Z,1.97
2022-11-10T09:28:34.645Z,1.87
2022-11-10T09:31:55.260Z,1.60
2022-11-10T09:35:16.304Z,1.60
2022-11-10T09:38:37.003Z,1.60
2022-11-10T09:41:57.609Z,1.77
2022-11-10T09:45:26.988Z,1.97
2022-11-10T09:49:01.965Z,1.63
2022-11-10T09:52:25.698Z,1.50
2022-11-10T09:55:51.206Z,1.70
2022-11-10T09:59:19.870Z,2.07
2022-11-10T10:02:45.712Z,1.73
2022-11-10T10:06:12.668Z,2.07
2022-11-10T10:09:42.343Z,1.93
2022-11-10T10:13:23.469Z,2.20
2022-11-10T10:16:52.944Z,2.13
2022-11-10T10:20:27.193Z,1.73
2022-11-10T10:24:10.481Z,1.80
2022-11-10T10:27:38.914Z,1.80
2022-11-10T10:31:20.781Z,1.40
2022-11-10T10:34:42.529Z,1.40
2022-11-10T10:38:05.894Z,1.83
2022-11-10T10:41:29.661Z,1.60
2022-11-10T10:45:29.378Z,1.67
2022-11-10T10:49:32.938Z,1.60
2022-11-10T10:53:21.824Z,1.63
2022-11-10T10:56:42.639Z,1.30
2022-11-10T11:00:33.659Z,1.30
2022-11-10T11:03:54.170Z,1.20
2022-11-10T11:07:24.085Z,1.57
2022-11-10T11:10:46.410Z,1.40
2022-11-10T11:14:25.081Z,1.77
2022-11-10T11:18:16.253Z,1.80
2022-11-10T11:21:56.869Z,1.60
2022-11-10T11:25:23.590Z,1.70
2022-11-10T11:29:03.135Z,2.13
2022-11-10T11:32:42.549Z,2.20
2022-11-10T11:36:30.484Z,1.97
2022-11-10T11:40:09.318Z,2.00
2022-11-10T11:43:57.370Z,1.90
2022-11-10T11:47:42.937Z,1.90
2022-11-10T11:51:29.504Z,2.47
2022-11-10T11:55:07.743Z,2.00
2022-11-10T11:58:54.493Z,1.90
2022-11-10T12:02:33.683Z,1.67
2022-11-10T12:06:35.287Z,1.90
2022-11-10T12:10:41.905Z,1.70
2022-11-10T12:14:16.948Z,1.77
2022-11-10T12:18:10.305Z,2.63
2022-11-10T12:21:50.280Z,1.80
2022-11-10T12:25:26.596Z,2.33
2022-11-10T12:29:03.906Z,2.90
2022-11-10T12:32:34.073Z,2.67
2022-11-10T12:35:57.135Z,2.60
2022-11-10T12:39:25.340Z,3.03
2022-11-10T12:42:53.251Z,3.17
2022-11-10T12:46:14.009Z,2.93
2022-11-10T12:49:42.071Z,3.37
2022-11-10T12:53:26.656Z,2.87
2022-11-10T12:57:03.533Z,3.00
2022-11-10T13:00:28.753Z,2.80
2022-11-10T13:03:58.721Z,3.37
2022-11-10T13:07:24.627Z,3.73
2022-11-10T13:10:55.531Z,3.10
2022-11-10T13:14:29.213Z,3.33
2022-11-10T13:17:49.964Z,3.00
2022-11-10T13:21:10.932Z,2.77
2022-11-10T13:24:37.678Z,2.40
2022-11-10T13:27:58.569Z,2.10
2022-11-10T13:31:27.730Z,2.40
2022-11-10T13:34:48.274Z,2.23
2022-11-10T13:38:33.625Z,2.17
2022-11-10T13:42:01.419Z,1.70
2022-11-10T13:45:30.541Z,2.17
2022-11-10T13:48:59.981Z,1.87
2022-11-10T13:53:04.971Z,2.70
2022-11-10T13:56:38.836Z,2.17
2022-11-10T14:00:02.668Z,2.40
2022-11-10T14:03:46.642Z,2.00
2022-11-10T14:07:19.220Z,2.43
2022-11-10T14:10:56.370Z,2.70
2022-11-10T14:14:33.991Z,2.53
2022-11-10T14:17:56.443Z,2.63
2022-11-10T14:21:29.635Z,2.30
2022-11-10T14:25:01.408Z,1.80
2022-11-10T14:28:29.304Z,2.40
2022-11-10T14:31:49.806Z,2.10
2022-11-10T14:35:22.928Z,2.03
2022-11-10T14:38:46.146Z,1.47
2022-11-10T14:42:06.937Z,1.70
2022-11-10T14:45:28.958Z,2.03
2022-11-10T14:48:57.226Z,1.40
2022-11-10T14:52:18.075Z,1.47
2022-11-10T14:55:44.413Z,1.93
2022-11-10T14:59:08.036Z,1.73
2022-11-10T15:02:28.896Z,1.90
2022-11-10T15:05:49.811Z,1.93
2022-11-10T15:09:24.320Z,2.73
2022-11-10T15:12:58.189Z,2.50
2022-11-10T15:16:40.028Z,5.70
2022-11-10T15:20:00.895Z,2.57
2022-11-10T15:23:33.657Z,2.67
2022-11-10T15:26:54.638Z,2.17
2022-11-10T15:30:23.837Z,2.63
2022-11-10T15:33:50.419Z,2.13
2022-11-10T15:37:23.072Z,2.37
2022-11-10T15:40:48.437Z,2.40
2022-11-10T15:44:25.570Z,2.30
2022-11-10T15:47:46.359Z,2.33
2022-11-10T15:51:11.208Z,2.00
2022-11-10T15:54:35.843Z,3.00
2022-11-10T15:57:56.282Z,3.03
2022-11-10T16:01:18.005Z,2.90
2022-11-10T16:04:38.653Z,3.00
2022-11-10T16:07:59.150Z,3.10
2022-11-10T16:11:21.637Z,2.53
2022-11-10T16:14:47.089Z,2.73
2022-11-10T16:18:13.653Z,2.63
2022-11-10T16:21:34.020Z,3.00
2022-11-10T16:24:54.375Z,2.60
2022-11-10T16:28:21.911Z,3.43
2022-11-10T16:31:43.186Z,4.00
2022-11-10T16:35:04.105Z,3.53
2022-11-10T16:38:29.538Z,3.60
2022-11-10T16:41:50.402Z,3.17
2022-11-10T16:45:16.110Z,3.27
2022-11-10T16:48:37.768Z,3.07
2022-11-10T16:51:58.368Z,3.00
2022-11-10T16:55:19.224Z,4.00
2022-11-10T16:58:39.902Z,3.60
2022-11-10T17:02:00.828Z,4.17
2022-11-10T17:05:21.289Z,4.43
2022-11-10T17:08:44.526Z,2.80
2022-11-10T17:12:06.260Z,3.20
2022-11-10T17:15:27.087Z,2.97
2022-11-10T17:18:48.279Z,3.10
2022-11-10T17:22:17.760Z,3.53
2022-11-10T17:25:38.964Z,3.30
2022-11-10T17:28:59.598Z,4.63
2022-11-10T17:32:27.887Z,3.50
2022-11-10T17:36:00.395Z,4.53
2022-11-10T17:39:22.849Z,4.93
2022-11-10T17:42:44.280Z,4.23
2022-11-10T17:46:05.423Z,4.17
2022-11-10T17:49:26.825Z,4.20
2022-11-10T17:52:48.708Z,4.50
2022-11-10T17:56:09.697Z,4.20
2022-11-10T17:59:30.487Z,3.80
2022-11-10T18:02:55.475Z,3.73
2022-11-10T18:06:18.180Z,3.10
2022-11-10T18:09:39.352Z,3.20
2022-11-10T18:13:01.648Z,2.80
2022-11-10T18:16:22.747Z,3.10
2022-11-10T18:19:43.910Z,3.00
2022-11-10T18:23:07.539Z,3.03
2022-11-10T18:26:28.640Z,3.17
2022-11-10T18:29:49.706Z,3.30
2022-11-10T18:33:12.874Z,3.70
2022-11-10T18:36:35.121Z,3.50
2022-11-10T18:39:56.358Z,3.37
2022-11-10T18:43:17.821Z,3.67
2022-11-10T18:46:39.276Z,4.17
2022-11-10T18:50:01.634Z,3.70
2022-11-10T18:53:23.315Z,3.27
2022-11-10T18:56:44.787Z,3.30
2022-11-10T19:00:07.595Z,3.50
2022-11-10T19:03:28.956Z,3.90
2022-11-10T19:06:50.532Z,3.60
2022-11-10T19:10:11.599Z,3.63
2022-11-10T19:13:33.160Z,3.90
2022-11-10T19:16:54.760Z,4.17
2022-11-10T19:20:16.932Z,3.80
2022-11-10T19:23:41.104Z,3.67
2022-11-10T19:27:02.606Z,3.47
2022-11-10T19:30:23.772Z,3.80
2022-11-10T19:33:46.571Z,3.87
2022-11-10T19:37:08.073Z,4.63
2022-11-10T19:40:29.730Z,3.43
2022-11-10T19:43:51.134Z,3.47
2022-11-10T19:47:11.996Z,4.43
2022-11-10T19:50:33.249Z,5.83
2022-11-10T19:54:02.164Z,7.20
2022-11-10T19:57:25.161Z,9.53
2022-11-10T20:00:48.613Z,8.40
2022-11-10T20:04:11.622Z,6.97
2022-11-10T20:07:51.542Z,5.70
2022-11-10T20:11:19.411Z,4.57
2022-11-10T20:14:40.700Z,4.17
2022-11-10T20:18:02.857Z,4.53
2022-11-10T20:21:24.016Z,3.90
2022-11-10T20:24:50.829Z,4.20
2022-11-10T20:28:17.967Z,4.17
2022-11-10T20:31:39.269Z,4.00
2022-11-10T20:35:01.358Z,4.17
2022-11-10T20:38:25.267Z,3.80
2022-11-10T20:41:46.448Z,4.20
2022-11-10T20:45:08.916Z,4.10
2022-11-10T20:48:31.681Z,4.83
2022-11-10T20:51:52.834Z,3.93
2022-11-10T20:55:18.304Z,3.50
2022-11-10T20:58:40.971Z,3.57
2022-11-10T21:02:02.281Z,4.17
2022-11-10T21:05:22.841Z,3.83
2022-11-10T21:08:44.079Z,3.73
2022-11-10T21:12:23.530Z,3.47
2022-11-10T21:15:49.100Z,4.10
2022-11-10T21:19:10.371Z,4.27
2022-11-10T21:22:31.032Z,3.83
2022-11-10T21:25:54.685Z,4.40
2022-11-10T21:29:15.525Z,4.80
2022-11-10T21:32:36.738Z,4.17
2022-11-10T21:35:57.655Z,4.93
2022-11-10T21:39:18.409Z,4.37
2022-11-10T21:42:39.471Z,4.00
2022-11-10T21:46:04.221Z,4.60
2022-11-10T21:49:24.597Z,4.10
2022-11-10T21:52:45.092Z,3.90
2022-11-10T21:56:08.179Z,4.33
2022-11-10T21:59:28.799Z,4.27
2022-11-10T22:02:49.244Z,4.20
2022-11-10T22:06:15.183Z,4.90
2022-11-10T22:09:54.655Z,3.90
2022-11-10T22:13:38.384Z,4.47
2022-11-10T22:17:38.601Z,3.87
2022-11-10T22:20:59.552Z,4.20
2022-11-10T22:24:29.026Z,3.77
2022-11-10T22:27:49.873Z,4.00
2022-11-10T22:31:12.069Z,3.57
2022-11-10T22:34:32.570Z,4.10
2022-11-10T22:37:53.147Z,4.30
2022-11-10T22:41:34.158Z,3.90
2022-11-10T22:44:54.980Z,3.63
2022-11-10T22:48:27.381Z,3.83
2022-11-10T22:51:54.732Z,4.00
2022-11-10T22:55:15.641Z,3.37
2022-11-10T22:58:36.113Z,3.33
2022-11-10T23:01:56.856Z,3.60
2022-11-10T23:05:17.674Z,3.70
2022-11-10T23:08:38.510Z,3.87
2022-11-10T23:11:59.144Z,3.67
2022-11-10T23:15:20.667Z,4.13
2022-11-10T23:18:43.785Z,3.73
2022-11-10T23:22:04.268Z,4.10
2022-11-10T23:25:24.929Z,4.07
2022-11-10T23:28:46.167Z,5.00
2022-11-10T23:32:06.677Z,5.50
2022-11-10T23:35:27.178Z,6.23
2022-11-10T23:38:50.712Z,8.93
2022-11-10T23:42:11.465Z,8.13
2022-11-10T23:46:00.215Z,6.63
2022-11-10T23:49:12.602Z,5.80
2022-11-10T23:52:33.003Z,3.90
2022-11-10T23:56:01.353Z,4.67
2022-11-10T23:59:21.964Z,3.73
